Latest Weather Observations for Kanagulk

IDV60801

Issued at 3:02 pm EST Friday 26 August 2016 (issued every 30 minutes, with the page automatically refreshed every 10 minutes)

About weather observations | Map of weather stations | Latest weather observations for VIC | Other Formats
Station Details ID: 079097 Name: KANAGULK Lat: -37.12 Lon: 141.80 Height: 188.8 m
Data from the previous 72 hours. | See also: Recent months at Kanagulk
Date/Time
EST
Temp
°C
App
Temp
°C
Dew
Point
°C
Rel
Hum
%
Delta-T
°C
Wind Press
QNH
hPa
Press
MSL
hPa
Rain since
9am
mm
Dir  Spd
km/h
Gust
km/h
Spd
kts
Gust
kts
26/03:00pm 11.1 8.3 5.0 66 2.8 WNW 9 15 5 8 1021.4 1021.7 0.0
26/02:30pm 11.1 8.1 4.3 63 3.1 WNW 9 15 5 8 1021.6 1021.9 0.0
26/02:00pm 11.0 8.0 4.2 63 3.1 WNW 9 13 5 7 1021.7 1022.0 0.0
26/01:30pm 11.1 7.7 3.9 61 3.2 WNW 11 20 6 11 1022.1 1022.4 0.0
26/01:00pm 11.4 8.4 3.9 60 3.4 NNW 9 19 5 10 1022.3 1022.6 0.0
26/12:30pm 11.0 8.1 4.5 64 3.0 W 9 15 5 8 1022.8 1023.1 0.0
26/12:00pm 11.3 8.8 5.0 65 2.9 W 7 13 4 7 1023.1 1023.4 0.0
26/11:30am 10.0 7.7 5.6 74 2.0 WSW 7 17 4 9 1023.6 1023.9 0.0
26/11:00am 9.1 6.4 5.8 80 1.5 WSW 9 15 5 8 1023.6 1023.9 0.0
26/10:30am 8.3 6.4 6.9 91 0.7 W 6 11 3 6 1023.6 1023.9 0.0
26/10:00am 7.8 6.1 7.7 99 0.0 W 6 9 3 5 1023.6 1023.9 0.0
26/09:30am 6.8 5.3 6.7 99 0.0 WSW 4 9 2 5 1023.5 1023.8 0.0
26/09:00am 6.0 5.1 5.9 99 0.0 CALM 0 7 0 4 1023.6 1023.9 0.0
26/08:30am 5.5 4.5 5.4 99 0.0 CALM 0 0 0 0 1023.4 1023.7 0.0
26/08:00am 5.0 3.9 4.9 99 0.0 CALM 0 0 0 0 1023.2 1023.5 0.0
26/07:30am 4.4 3.1 4.3 99 0.0 CALM 0 0 0 0 1022.9 1023.2 0.0
26/07:00am 4.1 2.8 4.0 99 0.0 CALM 0 0 0 0 1022.6 1022.9 0.0
26/06:30am 4.0 2.7 3.9 99 0.0 CALM 0 6 0 3 1022.2 1022.5 0.0
26/06:00am 3.8 2.4 3.7 99 0.0 CALM 0 0 0 0 1021.8 1022.1 0.0
26/05:30am 3.4 1.6 3.3 99 0.0 WSW 2 9 1 5 1021.6 1021.9 0.0
26/05:00am 2.5 0.5 2.4 99 0.0 W 2 6 1 3 1021.5 1021.8 0.0
26/04:30am 2.2 0.5 2.1 99 0.0 CALM 0 0 0 0 1021.3 1021.6 0.0
26/04:00am 2.2 0.2 2.1 99 0.0 WNW 2 7 1 4 1021.1 1021.4 0.0
26/03:30am 2.9 1.0 2.8 99 0.0 WSW 2 6 1 3 1021.0 1021.3 0.0
26/03:00am 1.2 -0.6 1.1 99 0.0 CALM 0 0 0 0 1020.9 1021.2 0.0
26/02:30am 1.8 0.1 1.7 99 0.0 CALM 0 0 0 0 1021.0 1021.3 0.0
26/02:00am 2.9 1.4 2.8 99 0.0 CALM 0 0 0 0 1021.2 1021.5 0.0
26/01:30am 2.9 1.4 2.8 99 0.0 CALM 0 0 0 0 1021.3 1021.6 0.0
26/01:00am 2.3 0.7 2.2 99 0.0 CALM 0 0 0 0 1021.1 1021.4 0.0
26/12:30am 3.5 2.1 3.4 99 0.0 CALM 0 0 0 0 1021.3 1021.6 0.0
26/12:00am 4.0 2.6 3.7 98 0.1 CALM 0 0 0 0 1021.3 1021.6 0.0
 
Date/Time
EST
Temp
°C
App
Temp
°C
Dew
Point
°C
Rel
Hum
%
Delta-T
°C
Wind Press
QNH
hPa
Press
MSL
hPa
Rain since
9am
mm
Dir  Spd
km/h
Gust
km/h
Spd
kts
Gust
kts
25/11:30pm 4.0 2.6 3.4 96 0.2 CALM 0 0 0 0 1021.2 1021.5 0.0
25/11:00pm 4.5 3.1 3.8 95 0.3 CALM 0 0 0 0 1021.0 1021.3 0.0
25/10:30pm 6.1 3.9 5.2 94 0.4 WSW 6 9 3 5 1021.1 1021.4 0.0
25/10:00pm 6.5 4.2 5.5 93 0.4 SW 7 11 4 6 1020.9 1021.2 0.0
25/09:30pm 6.7 4.3 5.3 91 0.6 WSW 7 11 4 6 1020.9 1021.2 0.0
25/09:00pm 7.1 4.4 5.6 90 0.7 SW 9 13 5 7 1020.8 1021.1 0.0
25/08:30pm 7.4 4.7 5.5 88 0.9 SW 9 11 5 6 1020.5 1020.7 0.0
25/08:00pm 7.8 5.1 5.8 87 0.9 SW 9 13 5 7 1020.3 1020.5 0.0
25/07:30pm 8.0 5.0 5.8 86 1.0 SW 11 15 6 8 1020.0 1020.2 0.0
25/07:00pm 8.4 4.9 5.5 82 1.3 SSW 13 19 7 10 1019.6 1019.8 0.0
25/06:30pm 8.6 5.5 5.5 81 1.4 SSW 11 15 6 8 1019.2 1019.4 0.0
25/06:00pm 8.8 5.7 5.5 80 1.5 S 11 17 6 9 1018.9 1019.1 0.0
25/05:30pm 9.5 5.0 6.2 80 1.5 S 19 26 10 14 1018.5 1018.8 0.0
25/05:00pm 9.7 5.6 6.2 79 1.6 S 17 26 9 14 1018.3 1018.6 0.0
25/04:30pm 10.6 5.8 5.6 71 2.3 S 20 26 11 14 1018.0 1018.3 0.0
25/04:00pm 10.7 7.0 4.4 65 2.8 SSW 13 19 7 10 1017.9 1018.2 0.0
25/03:30pm 10.8 6.1 5.1 68 2.6 SSW 19 24 10 13 1017.7 1018.0 0.0
25/03:00pm 12.4 8.3 4.4 58 3.7 SSW 15 24 8 13 1017.5 1017.8 0.0
25/02:30pm 12.0 8.0 4.7 61 3.4 SW 15 22 8 12 1017.3 1017.6 0.0
25/02:00pm 12.1 8.3 3.9 57 3.7 SSW 13 26 7 14 1017.3 1017.6 0.0
25/01:30pm 11.2 6.6 3.7 60 3.4 SW 17 28 9 15 1017.4 1017.7 0.0
25/01:00pm 10.9 6.0 2.2 55 3.7 SSW 17 24 9 13 1017.6 1017.9 0.0
25/12:30pm 11.2 6.7 4.0 61 3.2 SW 17 24 9 13 1017.8 1018.1 0.0
25/12:00pm 11.0 6.1 4.2 63 3.1 SSW 19 33 10 18 1017.8 1018.1 0.0
25/11:30am 10.4 5.5 5.0 69 2.5 SSW 20 28 11 15 1017.9 1018.2 0.0
25/11:00am 9.9 5.4 6.3 78 1.7 S 19 33 10 18 1018.0 1018.3 0.0
25/10:30am 8.0 4.1 7.1 94 0.4 SW 17 26 9 14 1017.9 1018.2 0.0
25/10:00am 8.1 5.6 8.0 99 0.0 SW 11 19 6 10 1017.7 1018.0 0.0
25/09:30am 6.3 3.3 6.2 99 0.0 SW 11 17 6 9 1017.8 1018.1 0.0
25/09:00am 6.1 3.5 6.0 99 0.0 WSW 9 13 5 7 1017.6 1017.9 0.2
25/08:30am 5.7 3.0 5.6 99 0.0 WSW 9 13 5 7 1017.4 1017.7 0.2
25/08:00am 5.3 2.5 5.2 99 0.0 W 9 15 5 8 1016.9 1017.2 0.2
25/07:30am 5.0 2.5 4.9 99 0.0 WSW 7 13 4 7 1016.6 1016.9 0.2
25/07:00am 4.1 1.6 4.0 99 0.0 WSW 6 9 3 5 1016.3 1016.6 0.2
25/06:30am 4.9 2.0 4.8 99 0.0 WSW 9 15 5 8 1016.1 1016.3 0.2
25/06:00am 4.6 1.7 4.5 99 0.0 WSW 9 13 5 7 1015.7 1015.9 0.2
25/05:30am 5.5 2.8 5.4 99 0.0 WSW 9 15 5 8 1015.5 1015.7 0.0
25/05:00am 6.0 2.6 5.9 99 0.0 WSW 13 19 7 10 1015.4 1015.6 0.0
25/04:30am 5.6 2.9 5.5 99 0.0 WSW 9 15 5 8 1015.3 1015.5 0.0
25/04:00am 5.0 2.1 4.9 99 0.0 WSW 9 15 5 8 1015.2 1015.4 0.0
25/03:30am 4.7 1.8 4.6 99 0.0 SW 9 17 5 9 1015.3 1015.5 0.0
25/03:00am 4.4 2.0 4.3 99 0.0 SW 6 9 3 5 1015.5 1015.7 0.0
25/02:30am 4.3 1.9 4.2 99 0.0 WSW 6 9 3 5 1015.5 1015.7 0.0
25/02:00am 3.0 1.1 2.7 98 0.1 W 2 7 1 4 1015.7 1015.9 0.0
25/01:30am 3.6 0.8 3.0 96 0.2 WSW 7 11 4 6 1015.8 1016.0 0.0
25/01:00am 3.6 1.3 2.9 95 0.3 SW 4 7 2 4 1015.6 1015.8 0.0
25/12:30am 4.3 1.2 3.4 94 0.4 SW 9 11 5 6 1015.7 1015.9 0.0
25/12:00am 4.6 1.5 3.6 93 0.4 SW 9 13 5 7 1015.9 1016.1 0.0
 
Date/Time
EST
Temp
°C
App
Temp
°C
Dew
Point
°C
Rel
Hum
%
Delta-T
°C
Wind Press
QNH
hPa
Press
MSL
hPa
Rain since
9am
mm
Dir  Spd
km/h
Gust
km/h
Spd
kts
Gust
kts
24/11:30pm 4.8 1.6 3.3 90 0.6 SW 9 11 5 6 1015.9 1016.1 0.0
24/11:00pm 5.2 2.1 3.7 90 0.6 SW 9 13 5 7 1016.0 1016.2 0.0
24/10:30pm 5.5 2.8 3.8 89 0.7 SW 7 11 4 6 1016.1 1016.3 0.0
24/10:00pm 5.7 2.7 4.0 89 0.7 SW 9 11 5 6 1016.2 1016.5 0.0
24/09:30pm 6.1 3.4 3.9 86 0.9 SSW 7 9 4 5 1016.1 1016.3 0.0
24/09:00pm 6.0 2.9 3.7 85 1.0 S 9 13 5 7 1016.0 1016.2 0.0
24/08:30pm 6.0 2.9 3.8 86 0.9 S 9 15 5 8 1015.9 1016.1 0.0
24/08:00pm 6.2 3.2 4.0 86 0.9 S 9 11 5 6 1015.9 1016.1 0.0
24/07:30pm 7.0 3.7 4.3 83 1.2 S 11 15 6 8 1015.7 1015.9 0.0
24/07:00pm 7.6 4.7 4.4 80 1.4 S 9 13 5 7 1015.4 1015.6 0.0
24/06:30pm 8.7 5.5 4.9 77 1.7 SSW 11 15 6 8 1015.2 1015.4 0.0
24/06:00pm 8.2 5.1 3.7 73 2.0 S 9 15 5 8 1014.9 1015.1 0.0
24/05:30pm 8.5 4.6 3.4 70 2.2 SSE 13 15 7 8 1014.7 1014.9 0.0
24/05:00pm 9.7 5.1 3.7 66 2.6 SSE 17 24 9 13 1014.5 1014.7 0.0
24/04:30pm 10.7 6.0 3.0 59 3.4 S 17 24 9 13 1014.4 1014.6 0.0
24/04:00pm 10.8 6.0 2.4 56 3.6 S 17 20 9 11 1014.5 1014.7 0.0
24/03:30pm 10.2 5.5 3.3 62 3.0 S 17 20 9 11 1014.5 1014.7 0.0
24/03:00pm 10.7 5.6 3.0 59 3.4 SSE 19 24 10 13 1014.4 1014.6 0.0
24/02:30pm 10.5 5.4 4.0 64 2.9 SSE 20 28 11 15 1014.5 1014.7 0.0
24/02:00pm 11.0 6.0 1.5 52 4.0 SSE 17 24 9 13 1014.6 1014.8 0.0
24/01:30pm 11.5 7.1 2.8 55 3.8 SSE 15 20 8 11 1014.8 1015.0 0.0
24/01:00pm 10.3 5.8 1.9 56 3.6 S 15 24 8 13 1015.0 1015.2 0.0
24/12:30pm 10.6 5.4 2.4 57 3.5 SSE 19 26 10 14 1015.4 1015.6 0.0
24/12:00pm 10.8 6.9 3.4 60 3.3 S 13 22 7 12 1015.7 1015.9 0.0
24/11:30am 10.3 6.2 2.2 57 3.5 SE 13 20 7 11 1016.0 1016.2 0.0
24/11:00am 10.1 5.5 3.8 65 2.8 SSE 17 24 9 13 1016.1 1016.3 0.0
24/10:30am 9.4 4.8 3.8 68 2.5 SSE 17 20 9 11 1016.3 1016.6 0.0
24/10:00am 8.7 4.3 4.7 76 1.8 SSE 17 22 9 12 1016.5 1016.8 0.0
24/09:30am 8.0 4.5 5.6 85 1.1 SSE 13 19 7 10 1016.7 1017.0 0.0
24/09:00am 6.2 3.0 5.0 92 0.5 SSE 11 13 6 7 1016.9 1017.2 0.0
24/08:30am 5.0 2.4 4.4 96 0.3 SSE 7 11 4 6 1016.9 1017.2 0.0
24/08:00am 3.4 0.1 2.7 95 0.3 S 9 11 5 6 1016.6 1016.9 0.0
24/07:30am 3.1 -0.2 2.2 94 0.4 S 9 11 5 6 1016.5 1016.8 0.0
24/07:00am 2.3 -0.7 1.1 92 0.5 SSE 6 7 3 4 1016.3 1016.6 0.0
24/06:30am 3.4 0.4 2.1 91 0.5 S 7 9 4 5 1016.0 1016.2 0.0
24/06:00am 3.3 0.3 1.8 90 0.6 S 7 9 4 5 1016.0 1016.2 0.0
24/05:30am 3.4 0.6 1.8 89 0.6 SSE 6 7 3 4 1015.9 1016.1 0.0
24/05:00am 3.4 0.3 1.6 88 0.7 S 7 9 4 5 1015.9 1016.1 0.0
24/04:30am 3.6 0.6 2.0 89 0.6 S 7 11 4 6 1015.9 1016.1 0.0
24/04:00am 3.4 0.0 1.9 90 0.6 S 9 11 5 6 1015.9 1016.1 0.0
24/03:30am 3.0 -0.1 1.5 90 0.6 S 7 11 4 6 1016.0 1016.2 0.0
24/03:00am 3.3 -0.4 2.1 92 0.5 S 11 11 6 6 1016.2 1016.5 0.0
24/02:30am 3.1 -0.6 2.1 93 0.4 S 11 13 6 7 1016.5 1016.8 0.0
24/02:00am 2.5 -1.0 1.5 93 0.4 SSE 9 11 5 6 1016.7 1017.0 0.0
24/01:30am 3.2 0.4 2.2 93 0.4 SSE 6 9 3 5 1016.8 1017.1 0.0
24/01:00am 3.5 0.6 2.5 93 0.4 SSE 7 9 4 5 1016.8 1017.1 0.0
24/12:30am 3.0 -0.4 2.1 94 0.4 SSE 9 13 5 7 1016.9 1017.2 0.0
24/12:00am 2.7 -0.8 1.4 91 0.5 SSE 9 11 5 6 1017.1 1017.4 0.0
 
Date/Time
EST
Temp
°C
App
Temp
°C
Dew
Point
°C
Rel
Hum
%
Delta-T
°C
Wind Press
QNH
hPa
Press
MSL
hPa
Rain since
9am
mm
Dir  Spd
km/h
Gust
km/h
Spd
kts
Gust
kts
23/11:30pm 3.7 0.7 1.9 88 0.7 SE 7 11 4 6 1017.1 1017.4 0.0
23/11:00pm 4.4 0.7 2.4 87 0.8 SSE 11 13 6 7 1017.1 1017.4 0.0
23/10:30pm 5.2 0.9 3.2 87 0.8 SSE 15 17 8 9 1017.0 1017.3 0.0
23/10:00pm 5.3 1.3 3.0 85 1.0 SSE 13 17 7 9 1017.1 1017.4 0.0
23/09:30pm 5.9 1.9 3.1 82 1.2 SSE 13 17 7 9 1017.2 1017.5 0.0
23/09:00pm 6.4 2.4 2.9 78 1.5 SSE 13 17 7 9 1017.2 1017.5 0.0
23/08:30pm 6.9 3.3 3.0 76 1.6 S 11 15 6 8 1017.1 1017.4 0.0
23/08:00pm 7.3 3.7 2.8 73 1.9 S 11 13 6 7 1017.0 1017.3 0.0
23/07:30pm 7.7 4.1 2.8 71 2.1 S 11 13 6 7 1016.9 1017.2 0.0
23/07:00pm 8.3 5.2 3.4 71 2.1 S 9 13 5 7 1016.9 1017.2 0.0
23/06:30pm 8.3 5.3 3.9 74 1.9 S 9 11 5 6 1016.9 1017.2 0.0
23/06:00pm 8.7 5.6 3.7 71 2.2 SSE 9 13 5 7 1016.8 1017.1 0.0
23/05:30pm 10.5 6.8 4.6 67 2.7 SSE 13 17 7 9 1016.7 1017.0 0.0
23/05:00pm 11.6 8.2 4.1 60 3.4 S 11 17 6 9 1016.5 1016.8 0.0
23/04:30pm 12.2 9.6 4.2 58 3.6 S 7 13 4 7 1016.4 1016.7 0.0
23/04:00pm 12.0 8.9 3.5 56 3.8 SE 9 13 5 7 1016.4 1016.7 0.0
23/03:30pm 12.8 11.2 4.5 57 3.8 E 2 9 1 5 1016.4 1016.7 0.0

Other Formats:

Comma delimited format used in spreadsheet applications
http://www.bom.gov.au/fwo/IDV60801/IDV60801.95827.axf

JavaScript Object Notation format (JSON) in row-major order
http://www.bom.gov.au/fwo/IDV60801/IDV60801.95827.json